Time;durP1;ratioP1;P1;durP2;ratioP2;P2;SDS_P1;SDS_P2;PMS_P1;PMS_P2;Temp;Humidity;BMP_temperature;BMP_pressure;BME280_temperature;BME280_humidity;BME280_pressure;Samples;Min_cycle;Max_cycle;Signal;HPM_P1;HPM_P2
2021/12/06 00:00:24;;;;;;;40.42;20.10;;;;;;;-3.81;87.92;99428.91;5053903;28;20524;-82
2021/12/06 00:02:53;;;;;;;39.35;18.70;;;;;;;-3.85;87.75;99419.59;5053481;28;20418;-82
2021/12/06 00:05:23;;;;;;;42.67;19.80;;;;;;;-3.85;87.71;99415.16;5071525;28;20507;-81
2021/12/06 00:07:50;;;;;;;38.65;19.85;;;;;;;-3.85;87.81;99404.59;5071469;28;20049;-81
2021/12/06 00:10:18;;;;;;;45.22;22.17;;;;;;;-3.83;87.94;99415.00;5071215;28;20060;-81
2021/12/06 00:12:45;;;;;;;41.53;20.80;;;;;;;-3.86;87.94;99415.31;5071259;28;20053;-82
2021/12/06 00:15:13;;;;;;;42.33;20.70;;;;;;;-3.83;87.97;99407.09;5071732;28;20060;-82
2021/12/06 00:17:44;;;;;;;37.35;20.67;;;;;;;-3.86;88.05;99402.13;5071414;28;20048;-82
2021/12/06 00:20:14;;;;;;;38.22;19.52;;;;;;;-3.86;88.35;99413.50;5071431;28;20055;-82
2021/12/06 00:22:43;;;;;;;50.65;24.15;;;;;;;-3.83;88.49;99401.81;5070889;28;20048;-82
2021/12/06 00:25:10;;;;;;;43.17;22.10;;;;;;;-3.79;88.22;99398.78;5071239;28;20132;-83
2021/12/06 00:27:39;;;;;;;37.70;20.50;;;;;;;-3.77;88.47;99399.47;5055345;28;20143;-82
2021/12/06 00:30:11;;;;;;;42.58;20.80;;;;;;;-3.78;88.32;99403.06;5013111;28;20161;-81
2021/12/06 00:32:40;;;;;;;33.80;17.58;;;;;;;-3.85;88.25;99401.13;5013304;28;20060;-80
2021/12/06 00:35:17;;;;;;;32.85;17.15;;;;;;;-3.96;88.02;99387.13;4996909;28;20149;-81
2021/12/06 00:37:55;;;;;;;36.78;17.98;;;;;;;-3.92;87.93;99406.16;4995469;28;20058;-80
2021/12/06 00:40:23;;;;;;;37.38;18.05;;;;;;;-3.96;88.05;99402.97;4993326;28;20078;-82
2021/12/06 00:42:53;;;;;;;34.10;15.77;;;;;;;-4.00;88.12;99398.97;4993067;28;20173;-81
2021/12/06 00:45:26;;;;;;;36.45;18.20;;;;;;;-3.97;88.17;99411.84;4993406;28;20082;-81
2021/12/06 00:47:56;;;;;;;38.17;17.30;;;;;;;-3.97;87.97;99413.66;4993232;28;20057;-80
2021/12/06 00:50:28;;;;;;;37.40;20.10;;;;;;;-3.94;88.30;99408.94;4993140;28;20146;-80
2021/12/06 00:52:55;;;;;;;34.83;17.40;;;;;;;-3.95;88.17;99404.63;4992907;28;20090;-81
2021/12/06 00:55:23;;;;;;;34.13;17.00;;;;;;;-3.97;88.04;99403.13;4993186;28;20145;-81
2021/12/06 00:57:52;;;;;;;35.25;18.52;;;;;;;-3.98;87.94;99404.06;4994120;28;20511;-82
2021/12/06 01:00:44;;;;;;;34.55;16.25;;;;;;;-3.94;87.88;99403.66;4986876;28;20582;-82
2021/12/06 01:03:16;;;;;;;40.47;18.60;;;;;;;-3.98;87.88;99394.34;5052435;28;20057;-83
2021/12/06 01:05:45;;;;;;;30.33;15.98;;;;;;;-3.95;88.07;99393.25;5038009;28;20075;-81
2021/12/06 01:08:12;;;;;;;38.33;19.05;;;;;;;-3.93;88.03;99391.28;5037373;28;20071;-81
2021/12/06 01:10:42;;;;;;;36.47;18.67;;;;;;;-3.94;88.06;99401.03;5054612;28;20063;-81
2021/12/06 01:13:13;;;;;;;37.03;18.40;;;;;;;-3.93;88.23;99399.22;5036832;28;20061;-82
2021/12/06 01:15:43;;;;;;;28.88;16.02;;;;;;;-3.98;87.85;99399.63;5054562;28;20052;-82
2021/12/06 01:18:12;;;;;;;33.63;16.77;;;;;;;-4.00;87.81;99404.22;5020521;28;20099;-81
2021/12/06 01:20:55;;;;;;;32.83;17.73;;;;;;;-4.00;87.55;99398.97;5036870;28;20052;-80
2021/12/06 01:23:27;;;;;;;35.38;16.55;;;;;;;-3.96;87.62;99392.41;5036769;28;20044;-81
2021/12/06 01:39:54;;;;;;;35.40;17.80;;;;;;;-3.95;87.08;99407.28;4994406;28;20501;-81
2021/12/06 01:42:22;;;;;;;36.63;19.05;;;;;;;-3.94;87.18;99416.84;5011828;28;20046;-81
2021/12/06 01:44:53;;;;;;;33.60;16.42;;;;;;;-3.95;87.35;99409.06;4995376;28;20428;-81
2021/12/06 01:47:29;;;;;;;38.92;18.63;;;;;;;-3.97;87.33;99416.31;4996123;28;20080;-81
2021/12/06 01:50:00;;;;;;;30.10;17.40;;;;;;;-3.98;87.34;99419.91;5011653;28;20269;-81
2021/12/06 01:52:37;;;;;;;31.08;16.10;;;;;;;-3.96;87.56;99431.13;4995575;28;20131;-81
2021/12/06 01:55:09;;;;;;;31.15;16.02;;;;;;;-4.00;87.48;99422.69;5011401;28;20173;-81
2021/12/06 01:57:37;;;;;;;31.75;17.35;;;;;;;-3.98;87.28;99419.91;4995281;28;20467;-82
2021/12/06 02:00:08;;;;;;;27.98;15.57;;;;;;;-3.96;87.24;99421.41;4994986;28;20548;-82
2021/12/06 02:02:42;;;;;;;31.42;14.90;;;;;;;-4.00;87.49;99422.69;5009326;28;20057;-82
2021/12/06 02:05:16;;;;;;;32.08;16.23;;;;;;;-3.96;87.22;99424.06;5001349;28;20179;-82
2021/12/06 02:07:44;;;;;;;34.40;17.20;;;;;;;-3.95;87.17;99420.47;5015028;28;20108;-82
2021/12/06 02:10:12;;;;;;;32.10;16.17;;;;;;;-3.96;86.94;99434.59;5033567;28;20057;-81
2021/12/06 02:12:39;;;;;;;29.95;16.63;;;;;;;-4.02;87.05;99427.28;5016156;28;20099;-82
2021/12/06 02:15:35;;;;;;;27.77;15.75;;;;;;;-4.03;86.90;99430.03;5033406;28;20053;-82
2021/12/06 02:18:10;;;;;;;33.67;15.35;;;;;;;-4.04;86.99;99431.84;5015483;28;20049;-82
2021/12/06 02:20:47;;;;;;;31.17;16.70;;;;;;;-4.05;87.05;99437.25;5033576;28;20057;-81
2021/12/06 02:23:16;;;;;;;28.65;16.13;;;;;;;-4.02;87.12;99434.34;5015850;28;20049;-80
2021/12/06 02:25:45;;;;;;;35.28;16.67;;;;;;;-4.01;86.92;99426.28;5033039;28;20548;-81
2021/12/06 02:28:13;;;;;;;37.65;19.60;;;;;;;-3.98;87.12;99433.91;4999556;28;20049;-80
2021/12/06 02:30:43;;;;;;;37.97;19.88;;;;;;;-3.96;86.88;99433.78;4999229;28;20053;-83
2021/12/06 02:33:11;;;;;;;39.33;19.48;;;;;;;-3.96;86.95;99439.06;5033541;28;20080;-82
2021/12/06 02:35:38;;;;;;;36.05;19.52;;;;;;;-3.92;86.74;99440.44;5032589;28;20025;-82
2021/12/06 02:38:07;;;;;;;41.50;20.00;;;;;;;-3.94;86.80;99437.94;5018945;28;20505;-82
2021/12/06 02:40:39;;;;;;;43.72;21.85;;;;;;;-3.88;87.01;99439.16;5015786;28;20049;-82
2021/12/06 02:43:08;;;;;;;43.05;20.63;;;;;;;-3.85;87.04;99441.53;5015024;28;20041;-81
2021/12/06 02:45:36;;;;;;;33.67;16.00;;;;;;;-3.95;86.59;99444.19;5033265;28;20045;-81
2021/12/06 02:48:06;;;;;;;36.38;17.65;;;;;;;-4.04;86.65;99447.66;5015364;28;20072;-82
2021/12/06 02:50:46;;;;;;;33.95;17.90;;;;;;;-4.09;86.91;99446.44;5015180;28;20041;-81
2021/12/06 02:53:15;;;;;;;35.28;16.90;;;;;;;-4.17;87.04;99447.94;5015723;28;20051;-82
2021/12/06 02:55:43;;;;;;;29.38;16.45;;;;;;;-4.18;87.14;99455.97;5015577;28;20048;-82
2021/12/06 02:58:32;;;;;;;36.25;20.67;;;;;;;-4.20;87.06;99469.31;5015355;28;20049;-82
2021/12/06 03:01:04;;;;;;;27.63;13.10;;;;;;;-4.27;87.29;99464.75;4964915;28;20555;-82
2021/12/06 03:03:32;;;;;;;36.60;16.55;;;;;;;-4.29;87.13;99474.59;5052738;28;20087;-82
2021/12/06 03:06:00;;;;;;;33.72;15.95;;;;;;;-4.29;87.00;99469.31;5052445;28;20107;-82
2021/12/06 03:08:47;;;;;;;31.52;17.65;;;;;;;-4.30;87.18;99462.34;5034528;28;20668;-82
2021/12/06 03:11:18;;;;;;;30.30;13.60;;;;;;;-4.31;87.19;99476.53;5034502;28;20106;-82
2021/12/06 03:13:48;;;;;;;34.25;19.02;;;;;;;-4.36;87.29;99464.56;5018441;28;20412;-82
2021/12/06 03:16:16;;;;;;;36.70;17.67;;;;;;;-4.36;87.50;99471.66;5018370;28;20447;-82
2021/12/06 03:18:46;;;;;;;34.05;15.43;;;;;;;-4.36;87.44;99479.56;5018166;28;20470;-83
2021/12/06 03:21:14;;;;;;;33.70;17.70;;;;;;;-4.37;87.38;99478.72;5034006;28;20462;-83
2021/12/06 03:23:42;;;;;;;38.72;18.33;;;;;;;-4.38;87.42;99477.09;5034370;28;20504;-82
2021/12/06 03:26:09;;;;;;;32.70;18.20;;;;;;;-4.34;87.40;99482.91;5034133;28;20049;-82
2021/12/06 03:28:38;;;;;;;33.35;16.50;;;;;;;-4.32;87.46;99477.50;5033916;28;20048;-82
2021/12/06 03:31:07;;;;;;;36.08;15.75;;;;;;;-4.31;87.10;99479.97;5017128;28;20147;-81
2021/12/06 03:33:36;;;;;;;32.92;17.50;;;;;;;-4.25;87.34;99486.53;5034681;28;20080;-81
2021/12/06 03:36:05;;;;;;;35.15;17.52;;;;;;;-4.27;86.94;99477.91;5051703;28;20389;-81
2021/12/06 03:38:35;;;;;;;32.65;17.95;;;;;;;-4.28;87.23;99474.47;5018036;28;20069;-82
2021/12/06 03:41:05;;;;;;;30.98;15.63;;;;;;;-4.29;87.03;99482.50;5016836;28;20049;-82
2021/12/06 03:43:34;;;;;;;34.95;18.60;;;;;;;-4.29;86.66;99485.97;5051288;28;20156;-81
2021/12/06 03:46:02;;;;;;;33.70;18.70;;;;;;;-4.31;86.85;99484.44;5033480;28;20076;-81
2021/12/06 03:48:30;;;;;;;36.33;18.10;;;;;;;-4.30;86.97;99491.34;5017906;28;20129;-81
2021/12/06 03:50:59;;;;;;;33.55;17.55;;;;;;;-4.33;86.78;99489.00;5033467;28;20072;-82
2021/12/06 03:53:28;;;;;;;40.70;18.65;;;;;;;-4.34;86.61;99484.72;5051396;28;20100;-82
2021/12/06 03:55:58;;;;;;;38.53;18.27;;;;;;;-4.30;86.75;99494.84;5016621;28;20041;-81
2021/12/06 03:58:27;;;;;;;35.15;17.65;;;;;;;-4.28;86.48;99485.00;5033492;28;20124;-82
2021/12/06 04:00:55;;;;;;;37.67;19.45;;;;;;;-4.26;86.41;99493.56;5016678;28;20065;-80
2021/12/06 04:03:25;;;;;;;40.42;21.52;;;;;;;-4.27;86.49;99499.00;5016695;28;20094;-82
2021/12/06 04:05:55;;;;;;;44.42;21.05;;;;;;;-4.25;86.61;99502.34;5033416;28;20079;-81
2021/12/06 04:08:27;;;;;;;36.28;20.83;;;;;;;-4.25;86.39;99502.34;5025295;28;20036;-81
2021/12/06 04:10:55;;;;;;;35.72;19.20;;;;;;;-4.21;86.45;99501.06;5061308;28;20500;-81
2021/12/06 04:13:22;;;;;;;38.53;22.75;;;;;;;-4.20;86.04;99503.59;5050950;28;20063;-82
2021/12/06 04:15:52;;;;;;;39.63;22.58;;;;;;;-4.23;86.25;99516.19;5032462;28;20493;-82
2021/12/06 04:18:24;;;;;;;33.75;18.05;;;;;;;-4.26;85.99;99512.03;5033314;28;20072;-82
2021/12/06 04:20:58;;;;;;;35.50;20.10;;;;;;;-4.30;85.79;99510.66;5016871;28;20045;-82
2021/12/06 04:23:25;;;;;;;30.60;16.53;;;;;;;-4.31;85.93;99508.16;5016910;28;20419;-81
2021/12/06 04:25:55;;;;;;;34.83;19.30;;;;;;;-4.32;85.93;99527.56;5032415;28;20319;-82
2021/12/06 04:28:29;;;;;;;38.50;19.48;;;;;;;-4.33;85.54;99513.53;5032170;28;20124;-81
2021/12/06 04:30:57;;;;;;;39.65;19.90;;;;;;;-4.29;85.83;99520.22;5049874;28;20144;-82
2021/12/06 04:33:25;;;;;;;36.20;19.77;;;;;;;-4.28;85.80;99518.41;5017608;28;20052;-82
2021/12/06 04:35:57;;;;;;;34.85;18.38;;;;;;;-4.27;85.76;99520.09;5032887;28;20131;-83
2021/12/06 04:38:24;;;;;;;35.90;18.92;;;;;;;-4.28;85.81;99521.91;5032769;28;20045;-82
2021/12/06 04:40:59;;;;;;;35.33;19.10;;;;;;;-4.25;85.53;99523.44;5032531;28;20049;-83
2021/12/06 04:43:28;;;;;;;37.10;19.17;;;;;;;-4.27;85.81;99526.19;5032705;28;20123;-82
2021/12/06 04:45:56;;;;;;;40.45;20.13;;;;;;;-4.39;85.91;99508.84;5032939;28;20512;-81
2021/12/06 04:48:24;;;;;;;37.35;21.55;;;;;;;-4.29;86.00;99533.41;5032593;28;20515;-83
2021/12/06 04:50:52;;;;;;;43.85;23.48;;;;;;;-4.27;85.97;99530.63;5049548;28;20119;-82
2021/12/06 04:53:24;;;;;;;40.42;20.75;;;;;;;-4.23;86.19;99532.00;5032454;28;20511;-83
2021/12/06 04:56:00;;;;;;;47.03;23.10;;;;;;;-4.17;86.12;99527.03;4998739;28;20106;-81
2021/12/06 04:58:32;;;;;;;36.03;18.88;;;;;;;-4.17;85.71;99526.19;5032484;28;20049;-82
2021/12/06 05:01:07;;;;;;;38.83;20.30;;;;;;;-4.17;85.72;99531.47;5032247;28;20056;-82
2021/12/06 05:03:35;;;;;;;;;;;;;;;-4.13;85.60;99530.22;5017751;28;20048;-83
2021/12/06 05:06:12;;;;;;;26.98;15.57;;;;;;;-4.20;85.54;99527.31;5033116;28;19986;-84
2021/12/06 05:08:44;;;;;;;32.60;16.17;;;;;;;-4.24;85.20;99531.19;5057882;28;20048;-83
2021/12/06 05:11:12;;;;;;;33.53;18.13;;;;;;;-4.25;85.09;99541.88;5022807;28;20053;-82
2021/12/06 05:13:43;;;;;;;40.50;20.88;;;;;;;-4.21;85.24;99544.06;5040153;28;20075;-82
2021/12/06 05:16:11;;;;;;;31.63;16.95;;;;;;;-4.23;85.21;99542.56;5029671;28;20060;-82
2021/12/06 05:18:40;;;;;;;36.13;18.83;;;;;;;-4.24;85.23;99539.09;5028470;28;20044;-84
2021/12/06 05:21:07;;;;;;;35.63;19.38;;;;;;;-4.29;85.44;99535.19;5056252;28;20415;-82
2021/12/06 05:23:35;;;;;;;35.10;19.83;;;;;;;-4.23;85.33;99532.00;5045662;28;20067;-83
2021/12/06 05:26:03;;;;;;;33.30;18.20;;;;;;;-4.20;85.45;99542.31;5074146;28;20391;-83
2021/12/06 05:28:33;;;;;;;33.05;17.80;;;;;;;-4.17;85.37;99534.13;5070669;28;20067;-82
2021/12/06 05:31:01;;;;;;;30.95;15.80;;;;;;;-4.30;85.09;99525.59;5037788;28;20132;-83
2021/12/06 05:33:30;;;;;;;28.00;14.82;;;;;;;-4.27;85.26;99543.81;5023415;28;20064;-83
2021/12/06 05:36:00;;;;;;;24.77;13.88;;;;;;;-4.33;85.26;99542.53;5035147;28;20120;-82
2021/12/06 05:38:29;;;;;;;27.48;14.30;;;;;;;-4.42;85.10;99536.28;5036379;28;20148;-88
2021/12/06 05:40:57;;;;;;;29.65;15.23;;;;;;;-4.41;85.09;99545.03;5034562;28;20095;-84
2021/12/06 05:43:25;;;;;;;25.73;13.80;;;;;;;-4.41;85.09;99550.28;5055124;28;20044;-86
2021/12/06 05:45:53;;;;;;;25.38;14.50;;;;;;;-4.51;84.99;99545.00;5043582;28;20059;-84
2021/12/06 05:48:20;;;;;;;30.85;14.65;;;;;;;-4.51;85.09;99549.44;5057348;28;20041;-84
2021/12/06 05:50:50;;;;;;;26.63;13.45;;;;;;;-4.46;85.43;99542.78;5049889;28;20045;-84
2021/12/06 05:53:18;;;;;;;28.95;14.55;;;;;;;-4.49;85.15;99553.59;5061098;28;20049;-91
2021/12/06 05:55:48;;;;;;;22.08;12.65;;;;;;;-4.54;85.01;99555.81;5053272;28;20037;-90
2021/12/06 05:58:20;;;;;;;24.70;14.43;;;;;;;-4.61;84.89;99549.41;5024347;28;20045;-85
2021/12/06 06:00:48;;;;;;;28.08;14.45;;;;;;;-4.52;85.03;99553.03;5020501;28;20102;-88
2021/12/06 06:03:16;;;;;;;24.67;14.07;;;;;;;-4.52;84.87;99559.13;5060335;28;20025;-90
2021/12/06 06:05:44;;;;;;;28.70;14.63;;;;;;;-4.54;85.13;99566.34;5074984;28;20040;-91
2021/12/06 06:11:37;;;;;;;30.60;15.05;;;;;;;-4.58;85.34;99555.25;5016413;28;20633;-87
2021/12/06 06:14:05;;;;;;;30.73;14.90;;;;;;;-4.52;85.50;99568.84;4983155;28;20047;-87
2021/12/06 06:16:36;;;;;;;23.88;12.20;;;;;;;-4.58;85.10;99557.06;4981444;28;20510;-87
2021/12/06 06:19:05;;;;;;;30.58;16.52;;;;;;;-4.56;85.08;99573.53;4966778;28;20043;-87
2021/12/06 06:21:34;;;;;;;33.97;15.68;;;;;;;-4.72;85.22;99566.16;4966826;28;20031;-90
2021/12/06 06:24:12;;;;;;;31.73;14.95;;;;;;;-4.81;85.35;99574.81;5361133;22;20065;-92
2021/12/06 06:26:45;;;;;;;34.33;16.95;;;;;;;-4.79;85.47;99579.00;5004932;28;20073;-90
2021/12/06 06:29:16;;;;;;;56.67;23.63;;;;;;;-4.84;85.58;99564.56;4993535;28;20050;-93
2021/12/06 06:31:53;;;;;;;45.88;20.50;;;;;;;-4.84;85.67;99581.19;4945700;29;20051;-92
2021/12/06 06:34:21;;;;;;;27.35;13.52;;;;;;;-4.85;85.62;99576.91;4966046;28;20055;-85
2021/12/06 06:36:49;;;;;;;28.60;15.02;;;;;;;-4.92;85.62;99586.28;4977043;28;20736;-90
2021/12/06 06:39:19;;;;;;;28.42;14.73;;;;;;;-4.97;86.04;99577.13;4959707;29;20074;-87
2021/12/06 06:41:51;;;;;;;34.08;15.25;;;;;;;-4.91;85.96;99590.59;4960603;29;20055;-90
2021/12/06 06:44:21;;;;;;;33.03;16.52;;;;;;;-4.90;85.83;99605.44;4988089;28;20043;-85
2021/12/06 06:46:50;;;;;;;28.60;15.52;;;;;;;-4.95;86.19;99601.53;4964476;29;20043;-92
2021/12/06 06:49:33;;;;;;;27.93;13.27;;;;;;;-5.02;86.10;99607.28;4952227;28;20090;-88
2021/12/06 06:52:01;;;;;;;30.83;14.68;;;;;;;-5.08;86.25;99610.47;4952384;29;20059;-89
2021/12/06 06:54:29;;;;;;;34.33;15.98;;;;;;;-5.17;86.47;99611.22;4940835;29;20928;-91
2021/12/06 06:56:59;;;;;;;31.48;13.95;;;;;;;-5.17;86.46;99610.41;4932759;29;20082;-88
2021/12/06 06:59:40;;;;;;;21.77;11.00;;;;;;;-5.31;86.51;99614.19;4947163;29;20055;-90
2021/12/06 07:02:08;;;;;;;25.85;11.57;;;;;;;-5.42;86.41;99615.06;4938566;28;20161;-91
2021/12/06 07:04:36;;;;;;;27.70;11.68;;;;;;;-5.40;86.56;99607.06;4994687;28;20121;-89
2021/12/06 07:07:12;;;;;;;25.42;12.82;;;;;;;-5.34;86.47;99602.13;5004312;28;20046;-85
2021/12/06 07:09:42;;;;;;;23.55;11.88;;;;;;;-5.21;86.55;99619.53;4985109;28;20429;-87
2021/12/06 07:12:17;;;;;;;25.20;11.20;;;;;;;-5.19;86.44;99614.94;5019142;28;20058;-89
2021/12/06 07:14:46;;;;;;;22.55;11.02;;;;;;;-5.16;85.87;99610.28;5015327;28;20046;-85
2021/12/06 07:17:17;;;;;;;18.48;8.95;;;;;;;-5.26;85.61;99615.47;5015538;28;20563;-85
2021/12/06 07:19:44;;;;;;;17.10;9.10;;;;;;;-5.27;85.20;99616.41;4994162;28;20050;-88
2021/12/06 07:22:12;;;;;;;16.05;8.48;;;;;;;-5.29;85.04;99628.91;5006790;28;20408;-85
2021/12/06 07:24:39;;;;;;;17.75;9.32;;;;;;;-5.30;85.02;99635.09;4991859;28;20157;-85
2021/12/06 07:27:06;;;;;;;19.35;9.52;;;;;;;-5.21;84.88;99635.31;4980936;28;20046;-84
2021/12/06 07:29:35;;;;;;;20.65;10.45;;;;;;;-5.19;85.18;99634.22;4987802;28;20548;-86
2021/12/06 07:32:05;;;;;;;27.75;12.10;;;;;;;-5.15;85.27;99629.53;4983329;28;20046;-88
2021/12/06 07:34:49;;;;;;;16.73;8.45;;;;;;;-5.21;85.01;99628.25;4989915;28;20070;-90
2021/12/06 07:37:25;;;;;;;20.50;9.60;;;;;;;-5.35;84.87;99624.13;4995305;28;20058;-85
2021/12/06 07:39:53;;;;;;;22.02;11.05;;;;;;;-5.33;84.91;99626.66;4980187;28;20042;-84
2021/12/06 07:42:20;;;;;;;22.65;11.23;;;;;;;-5.34;84.81;99625.81;4994117;28;20050;-90
2021/12/06 07:44:48;;;;;;;25.75;11.63;;;;;;;-5.34;85.04;99617.91;4991285;28;20113;-83
2021/12/06 07:47:15;;;;;;;23.30;12.38;;;;;;;-5.28;85.25;99633.19;4995412;28;20459;-89
2021/12/06 07:49:45;;;;;;;27.40;12.88;;;;;;;-5.32;85.14;99628.28;5009210;28;20041;-87
2021/12/06 07:52:27;;;;;;;26.42;14.95;;;;;;;-5.28;85.38;99643.72;5009860;28;20053;-86
2021/12/06 07:54:59;;;;;;;27.27;11.75;;;;;;;-5.31;85.37;99635.25;5010805;28;20050;-85
2021/12/06 07:57:28;;;;;;;30.58;14.55;;;;;;;-5.49;85.64;99632.34;5008639;28;20084;-87
2021/12/06 07:59:55;;;;;;;28.77;12.82;;;;;;;-5.43;85.95;99638.91;4962676;28;20050;-85
2021/12/06 08:02:23;;;;;;;37.25;16.58;;;;;;;-5.47;86.18;99626.00;4989654;28;20078;-85
2021/12/06 08:05:29;;;;;;;41.47;19.02;;;;;;;-5.53;86.31;99623.03;5009064;28;20140;-87
2021/12/06 08:07:40;;;;;;;43.00;17.35;;;;;;;-5.55;86.48;99643.34;5013099;28;20054;-91
2021/12/06 08:10:08;;;;;;;40.72;16.70;;;;;;;-5.56;86.61;99655.69;4990327;28;20173;-84
2021/12/06 08:12:35;;;;;;;44.83;18.13;;;;;;;-5.70;87.00;99650.69;4988493;28;20064;-84
2021/12/06 08:15:04;;;;;;;48.33;19.98;;;;;;;-5.72;87.41;99650.84;5006414;28;20042;-83
2021/12/06 08:17:31;;;;;;;39.92;17.02;;;;;;;-5.68;87.46;99661.94;5008289;28;20053;-83
2021/12/06 08:19:58;;;;;;;34.03;15.25;;;;;;;-5.67;87.32;99661.81;5008387;28;20507;-86
2021/12/06 08:22:26;;;;;;;42.60;20.83;;;;;;;-5.69;87.40;99655.84;4990522;28;20046;-84
2021/12/06 08:24:53;;;;;;;45.95;21.17;;;;;;;-5.65;87.81;99664.31;5005232;28;20054;-85
2021/12/06 08:27:20;;;;;;;45.15;22.48;;;;;;;-5.71;87.72;99663.03;5006678;28;20046;-83
2021/12/06 08:29:47;;;;;;;42.45;18.35;;;;;;;-5.68;87.73;99659.31;4990068;28;20046;-84
2021/12/06 08:32:14;;;;;;;46.25;18.70;;;;;;;-5.63;87.81;99672.09;5026214;28;20046;-84
2021/12/06 08:34:46;;;;;;;51.92;22.23;;;;;;;-5.71;87.63;99668.28;5010660;28;20409;-85
2021/12/06 08:37:14;;;;;;;48.05;20.88;;;;;;;-5.73;87.85;99680.72;5007604;28;20425;-84
2021/12/06 08:39:42;;;;;;;46.55;22.27;;;;;;;-5.86;88.07;99669.50;5007869;28;20241;-82
2021/12/06 08:42:10;;;;;;;55.22;20.23;;;;;;;-5.92;88.30;99660.34;5005774;28;20064;-83
2021/12/06 08:44:37;;;;;;;49.15;21.25;;;;;;;-5.78;88.31;99674.16;5022440;28;20041;-86
2021/12/06 08:47:04;;;;;;;54.08;22.10;;;;;;;-5.71;88.46;99681.44;5026341;28;20112;-83
2021/12/06 08:49:33;;;;;;;56.53;23.40;;;;;;;-5.70;88.47;99672.59;5011822;28;20097;-83
2021/12/06 08:52:00;;;;;;;52.65;23.52;;;;;;;-5.60;88.41;99674.47;5003146;28;20049;-83
2021/12/06 08:54:29;;;;;;;55.05;23.98;;;;;;;-5.61;88.62;99671.00;5022973;28;20057;-85
2021/12/06 08:56:58;;;;;;;57.53;24.00;;;;;;;-5.57;88.53;99671.56;5017189;28;20069;-85
2021/12/06 08:59:27;;;;;;;59.10;26.00;;;;;;;-5.61;88.50;99657.03;5013160;28;20076;-82
2021/12/06 09:01:57;;;;;;;43.33;19.85;;;;;;;-5.55;88.41;99657.34;4997512;28;20382;-84
2021/12/06 09:04:45;;;;;;;56.42;24.73;;;;;;;-5.68;88.54;99661.94;5014146;28;20053;-83
2021/12/06 09:07:13;;;;;;;56.45;24.25;;;;;;;-5.70;88.30;99666.47;5017468;28;20053;-84
2021/12/06 09:09:46;;;;;;;52.88;23.08;;;;;;;-5.74;88.51;99679.06;5030427;28;20056;-85
2021/12/06 09:12:16;;;;;;;48.83;19.35;;;;;;;-5.92;88.11;99660.34;5015815;28;20506;-83
2021/12/06 09:14:43;;;;;;;51.00;22.55;;;;;;;-5.82;88.08;99670.94;5015814;28;20046;-85
2021/12/06 09:17:11;;;;;;;43.42;19.55;;;;;;;-5.83;88.08;99676.31;4998440;28;20076;-85
2021/12/06 09:19:39;;;;;;;47.92;21.40;;;;;;;-5.93;88.08;99665.72;5016225;28;20075;-85
2021/12/06 09:22:09;;;;;;;48.60;20.35;;;;;;;-5.89;88.42;99667.97;5025230;28;20057;-85
2021/12/06 09:24:38;;;;;;;56.42;24.63;;;;;;;-5.89;88.27;99667.13;5018776;28;20054;-88
2021/12/06 09:27:10;;;;;;;46.20;18.02;;;;;;;-5.88;88.19;99658.28;5021735;28;20057;-89
2021/12/06 09:29:38;;;;;;;52.03;22.52;;;;;;;-5.78;88.29;99658.38;5016172;28;20148;-86
2021/12/06 09:32:13;;;;;;;41.42;15.90;;;;;;;-5.77;88.14;99657.41;5022539;28;20049;-85
2021/12/06 09:34:43;;;;;;;37.90;15.07;;;;;;;-5.75;87.99;99668.66;5017963;28;20056;-86
2021/12/06 09:37:11;;;;;;;50.75;19.63;;;;;;;-5.86;87.97;99676.56;5015286;28;20527;-85
2021/12/06 09:39:39;;;;;;;37.55;14.48;;;;;;;-5.95;88.13;99673.75;5015017;28;20114;-85
2021/12/06 09:42:06;;;;;;;32.00;14.57;;;;;;;-5.92;88.21;99688.44;4983779;28;20511;-86
2021/12/06 09:44:34;;;;;;;45.08;20.13;;;;;;;-5.93;88.17;99690.19;4995464;28;20057;-84
2021/12/06 09:47:03;;;;;;;44.58;18.35;;;;;;;-5.91;88.02;99679.56;4994613;28;20046;-84
2021/12/06 09:49:31;;;;;;;50.65;20.55;;;;;;;-6.08;87.86;99674.84;5009615;28;20050;-84
2021/12/06 09:52:01;;;;;;;51.60;19.90;;;;;;;-6.04;88.35;99681.53;4992856;28;20108;-83
2021/12/06 09:54:31;;;;;;;45.83;20.02;;;;;;;-6.03;88.53;99672.69;5013340;28;20157;-85
2021/12/06 09:56:59;;;;;;;53.97;22.13;;;;;;;-6.06;88.51;99663.25;5013801;28;20186;-84
2021/12/06 09:59:32;;;;;;;49.15;19.85;;;;;;;-5.84;88.61;99688.63;5018802;23;20129;-83
2021/12/06 10:02:12;;;;;;;52.35;20.65;;;;;;;-5.92;88.30;99667.41;5068598;28;20126;-83
2021/12/06 10:04:46;;;;;;;50.22;19.00;;;;;;;-5.79;88.42;99689.09;5044057;28;20250;-86
2021/12/06 10:07:15;;;;;;;48.40;19.57;;;;;;;-5.76;88.29;99678.34;5074199;28;20050;-83
2021/12/06 10:09:46;;;;;;;46.63;18.38;;;;;;;-5.88;88.51;99668.81;5067798;28;20310;-85
2021/12/06 10:12:16;;;;;;;48.72;20.67;;;;;;;-5.86;88.14;99681.84;5057254;28;20055;-87
2021/12/06 10:14:52;;;;;;;42.63;16.65;;;;;;;-5.82;88.02;99678.84;5072441;28;20094;-84
2021/12/06 10:17:21;;;;;;;47.38;19.65;;;;;;;-5.82;88.03;99670.09;5034206;28;20053;-89
2021/12/06 10:19:52;;;;;;;45.20;17.95;;;;;;;-5.79;88.19;99681.22;5034915;28;20053;-89
2021/12/06 10:22:34;;;;;;;47.38;19.40;;;;;;;-5.81;88.18;99675.25;5002135;28;20053;-86
2021/12/06 10:25:03;;;;;;;47.45;20.65;;;;;;;-5.64;88.17;99684.41;5048015;28;20076;-85
2021/12/06 10:27:53;;;;;;;47.28;18.83;;;;;;;-5.66;88.04;99681.88;4702834;28;10000172;-86
2021/12/06 10:30:22;;;;;;;44.30;19.55;;;;;;;-5.64;88.18;99694.09;5033206;28;20060;-84
2021/12/06 10:33:07;;;;;;;44.83;17.95;;;;;;;-5.66;88.07;99681.88;5017108;28;20053;-83
2021/12/06 10:35:39;;;;;;;48.95;18.98;;;;;;;-5.69;88.04;99676.06;4989042;28;20057;-86
2021/12/06 10:38:09;;;;;;;50.00;19.15;;;;;;;-5.62;88.29;99679.00;5041225;28;20059;-87
2021/12/06 10:40:41;;;;;;;48.40;19.80;;;;;;;-5.52;88.27;99682.56;5023942;28;20045;-84
2021/12/06 10:43:11;;;;;;;63.60;26.90;;;;;;;-5.44;88.36;99690.69;5043327;28;20052;-83
2021/12/06 10:45:44;;;;;;;56.22;22.70;;;;;;;-5.51;87.86;99678.97;5021988;28;20109;-86
2021/12/06 10:48:29;;;;;;;46.85;20.15;;;;;;;-5.61;87.90;99678.06;5040464;28;20077;-84
2021/12/06 10:51:11;;;;;;;46.28;19.63;;;;;;;-5.73;88.03;99667.56;5037108;28;20065;-86
2021/12/06 10:54:00;;;;;;;48.97;18.50;;;;;;;-5.76;88.13;99659.94;5051695;28;20044;-86
2021/12/06 10:56:46;;;;;;;;;;;;;;;-5.68;88.19;99686.44;5050805;28;20067;-86
2021/12/06 10:59:28;;;;;;;52.08;19.60;;;;;;;-5.62;88.37;99684.25;5073651;28;19924;-87
2021/12/06 11:02:02;;;;;;;52.63;20.05;;;;;;;-5.74;88.20;99681.69;5056206;28;20047;-83
2021/12/06 11:04:33;;;;;;;48.33;19.77;;;;;;;-5.59;88.33;99703.28;5038046;28;20055;-82
2021/12/06 11:07:05;;;;;;;59.05;22.05;;;;;;;-5.64;88.11;99694.09;5056254;28;20577;-82
2021/12/06 11:09:39;;;;;;;58.03;22.40;;;;;;;-5.63;88.27;99687.88;5051157;28;20518;-84
2021/12/06 11:12:08;;;;;;;56.20;22.38;;;;;;;-5.57;88.35;99701.38;5056191;28;20054;-83
2021/12/06 11:14:38;;;;;;;58.17;21.75;;;;;;;-5.49;88.14;99711.25;5029303;28;20446;-85
2021/12/06 11:17:09;;;;;;;60.05;23.25;;;;;;;-5.54;88.44;99721.31;5071805;28;20045;-84
2021/12/06 11:19:37;;;;;;;63.58;23.95;;;;;;;-5.70;88.39;99688.38;5063364;28;20165;-84
2021/12/06 11:22:19;;;;;;;66.80;23.27;;;;;;;-5.47;88.69;99709.31;5045950;28;20049;-85
2021/12/06 11:24:51;;;;;;;61.95;22.02;;;;;;;-5.50;88.54;99694.63;5073968;28;20104;-84
2021/12/06 11:27:25;;;;;;;65.82;23.95;;;;;;;-5.45;88.48;99702.16;5071007;28;20040;-83
2021/12/06 11:30:00;;;;;;;68.68;25.17;;;;;;;-5.56;88.75;99689.03;5066098;28;20044;-83
2021/12/06 11:32:32;;;;;;;58.13;21.15;;;;;;;-5.42;88.55;99699.25;5066343;28;20114;-84
2021/12/06 11:35:06;;;;;;;75.38;25.95;;;;;;;-5.46;88.67;99693.41;5066924;28;20627;-84
2021/12/06 11:37:48;;;;;;;69.13;26.05;;;;;;;-5.37;88.79;99697.09;5070196;28;20041;-84
2021/12/06 11:40:20;;;;;;;74.35;26.45;;;;;;;-5.35;88.58;99704.84;5072466;28;20129;-84
2021/12/06 11:43:00;;;;;;;62.50;22.48;;;;;;;-5.38;88.72;99698.06;5069458;28;20048;-84
2021/12/06 11:45:40;;;;;;;65.40;28.73;;;;;;;-5.24;88.73;99710.09;5070345;28;20055;-83
2021/12/06 11:48:12;;;;;;;55.17;21.63;;;;;;;-5.31;88.33;99699.22;5081419;28;20048;-84
2021/12/06 11:50:44;;;;;;;56.72;18.73;;;;;;;-5.40;88.73;99705.22;5071270;28;20049;-83